Terminal Aerodrome Forecast
Issued by NWS Knoxville/Tri Cities, TN

Home | Current Version | Previous Version | Text Only | Print | Product List | Glossary On
Versions: 1 2 3 4 5 6 7 8 9 10 11 12 13 14 15 16 17 18 19 20 21 22 23 24 25 26 27 28 29 30 31 32 33 34 35 36 37 38
000
FTUS44 KMRX 251720
TAFTRI
TAF
KTRI 251720Z 2518/2618 22014G22KT 4SM -RA BR BKN030 OVC050
     FM252200 25017KT P6SM VCSH SCT015 OVC035
     FM260200 27009KT P6SM BKN035
     FM260700 27005KT 5SM BR SCT010 BKN040
     FM261300 27009KT P6SM BKN100=

USA.gov is the U.S. government's official web portal to all federal, state and local government web resources and services.